createdAt,value
2022-12-20T00:02:43.988Z,-0.12
2022-12-20T00:05:46.402Z,0.00
2022-12-20T00:08:53.364Z,-0.13
2022-12-20T00:11:55.701Z,-0.09
2022-12-20T00:14:58.260Z,-0.15
2022-12-20T00:18:01.001Z,-0.19
2022-12-20T00:21:04.783Z,0.06
2022-12-20T00:24:07.685Z,0.03
2022-12-20T00:27:09.950Z,-0.17
2022-12-20T00:30:12.680Z,-0.01
2022-12-20T00:33:14.940Z,-0.08
2022-12-20T00:36:18.480Z,0.08
2022-12-20T00:39:21.742Z,0.04
2022-12-20T00:42:24.295Z,0.08
2022-12-20T00:45:26.559Z,0.10
2022-12-20T00:48:30.317Z,0.16
2022-12-20T00:51:32.958Z,-0.00
2022-12-20T00:54:35.586Z,-0.05
2022-12-20T00:57:37.917Z,-0.00
2022-12-20T01:00:41.064Z,0.02
2022-12-20T01:03:43.546Z,0.02
2022-12-20T01:06:48.165Z,-0.04
2022-12-20T01:09:50.456Z,0.02
2022-12-20T01:12:52.824Z,0.03
2022-12-20T01:15:55.271Z,-0.07
2022-12-20T01:18:57.793Z,0.05
2022-12-20T01:22:00.292Z,0.10
2022-12-20T01:25:02.676Z,0.04
2022-12-20T01:28:05.240Z,0.12
2022-12-20T01:31:09.019Z,0.23
2022-12-20T01:34:12.421Z,0.03
2022-12-20T01:37:15.443Z,0.24
2022-12-20T01:40:17.936Z,0.10
2022-12-20T01:43:22.295Z,0.35
2022-12-20T01:46:27.669Z,0.20
2022-12-20T01:49:33.602Z,0.11
2022-12-20T01:52:40.194Z,0.20
2022-12-20T01:55:42.832Z,0.22
2022-12-20T01:58:47.126Z,0.30
2022-12-20T02:01:49.552Z,0.22
2022-12-20T02:04:52.074Z,0.36
2022-12-20T02:07:56.174Z,0.38
2022-12-20T02:11:27.498Z,0.19
2022-12-20T02:14:37.356Z,0.39
2022-12-20T02:18:12.952Z,0.52
2022-12-20T02:21:15.128Z,0.44
2022-12-20T02:24:47.837Z,0.24
2022-12-20T02:27:55.525Z,0.38
2022-12-20T02:30:58.912Z,0.30
2022-12-20T02:34:03.268Z,0.45
2022-12-20T02:37:05.775Z,0.41
2022-12-20T02:40:10.233Z,0.38
2022-12-20T02:43:32.792Z,0.25
2022-12-20T02:46:35.907Z,0.33
2022-12-20T02:49:41.404Z,0.30
2022-12-20T02:52:44.816Z,0.42
2022-12-20T02:55:49.251Z,0.35
2022-12-20T02:59:07.131Z,0.45
2022-12-20T03:02:11.856Z,0.36
2022-12-20T03:05:14.365Z,0.50
2022-12-20T03:08:17.327Z,0.51
2022-12-20T03:11:20.592Z,0.36
2022-12-20T03:14:23.327Z,0.19
2022-12-20T03:17:26.996Z,0.45
2022-12-20T03:20:29.545Z,0.28
2022-12-20T03:23:32.311Z,0.49
2022-12-20T03:26:34.950Z,0.21
2022-12-20T03:29:37.540Z,0.29
2022-12-20T03:32:40.225Z,0.31
2022-12-20T03:35:43.950Z,0.43
2022-12-20T03:38:46.266Z,0.48
2022-12-20T03:41:48.683Z,0.37
2022-12-20T03:44:53.690Z,0.37
2022-12-20T03:47:56.487Z,0.51
2022-12-20T03:51:05.237Z,0.46
2022-12-20T03:54:07.643Z,0.55
2022-12-20T03:57:33.079Z,0.36
2022-12-20T04:00:35.591Z,0.38
2022-12-20T04:04:08.781Z,0.53
2022-12-20T04:07:11.199Z,0.64
2022-12-20T04:10:16.237Z,0.66
2022-12-20T04:13:18.604Z,0.63
2022-12-20T04:16:24.073Z,0.73
2022-12-20T04:19:26.762Z,0.74
2022-12-20T04:22:29.569Z,0.73
2022-12-20T04:25:38.709Z,0.79
2022-12-20T04:28:42.547Z,0.82
2022-12-20T04:31:46.535Z,0.71
2022-12-20T04:34:49.631Z,0.77
2022-12-20T04:37:53.066Z,0.65
2022-12-20T04:40:56.513Z,0.72
2022-12-20T04:44:00.459Z,0.90
2022-12-20T04:47:10.943Z,0.86
2022-12-20T04:50:13.474Z,0.79
2022-12-20T04:53:36.870Z,0.91
2022-12-20T04:56:39.429Z,0.73
2022-12-20T04:59:47.297Z,1.15
2022-12-20T05:02:51.618Z,0.93
2022-12-20T05:05:56.218Z,0.68
2022-12-20T05:08:59.074Z,1.11
2022-12-20T05:12:02.144Z,0.97
2022-12-20T05:15:04.917Z,1.13
2022-12-20T05:18:07.467Z,1.04
2022-12-20T05:21:48.761Z,1.00
2022-12-20T05:25:09.941Z,0.68
2022-12-20T05:28:14.255Z,0.98
2022-12-20T05:31:16.685Z,0.88
2022-12-20T05:34:19.238Z,0.99
2022-12-20T05:37:26.917Z,0.89
2022-12-20T05:40:31.693Z,0.96
2022-12-20T05:43:35.219Z,1.10
2022-12-20T05:46:39.778Z,1.24
2022-12-20T05:49:46.950Z,0.99
2022-12-20T05:52:49.412Z,1.11
2022-12-20T05:55:55.715Z,1.28
2022-12-20T05:59:04.187Z,1.03
2022-12-20T06:02:07.076Z,1.13
2022-12-20T06:05:10.531Z,1.13
2022-12-20T06:08:13.307Z,1.18
2022-12-20T06:11:15.759Z,1.11
2022-12-20T06:14:25.772Z,1.21
2022-12-20T06:17:31.098Z,1.03
2022-12-20T06:20:35.377Z,1.23
2022-12-20T06:23:38.928Z,1.27
2022-12-20T06:26:44.193Z,1.27
2022-12-20T06:29:52.112Z,0.90
2022-12-20T06:32:57.614Z,1.24
2022-12-20T06:36:00.101Z,1.26
2022-12-20T06:39:09.170Z,1.16
2022-12-20T06:42:18.615Z,1.02
2022-12-20T06:45:22.020Z,1.06
2022-12-20T06:48:24.536Z,1.11
2022-12-20T06:51:27.051Z,1.11
2022-12-20T06:54:30.063Z,1.04
2022-12-20T06:57:33.287Z,1.15
2022-12-20T07:00:35.770Z,1.05
2022-12-20T07:03:38.103Z,0.91
2022-12-20T07:06:40.528Z,0.90
2022-12-20T07:09:42.867Z,0.78
2022-12-20T07:12:48.147Z,1.10
2022-12-20T07:15:59.116Z,0.92
2022-12-20T07:19:01.422Z,1.03
2022-12-20T07:22:04.380Z,1.11
2022-12-20T07:25:07.306Z,1.15
2022-12-20T07:28:09.748Z,1.13
2022-12-20T07:31:12.143Z,1.01
2022-12-20T07:34:14.697Z,1.17
2022-12-20T07:37:16.969Z,1.12
2022-12-20T07:40:19.301Z,1.00
2022-12-20T07:43:21.624Z,1.19
2022-12-20T07:46:23.917Z,1.36
2022-12-20T07:49:27.377Z,1.18
2022-12-20T07:52:30.716Z,1.18
2022-12-20T07:55:34.208Z,1.31
2022-12-20T07:58:38.473Z,1.39
2022-12-20T08:01:42.431Z,1.39
2022-12-20T08:04:44.624Z,1.39
2022-12-20T08:07:48.541Z,1.13
2022-12-20T08:10:52.659Z,0.98
2022-12-20T08:13:58.181Z,1.20
2022-12-20T08:17:00.943Z,1.48
2022-12-20T08:20:05.841Z,1.38
2022-12-20T08:23:08.217Z,1.38
2022-12-20T08:26:10.591Z,1.12
2022-12-20T08:29:13.283Z,1.44
2022-12-20T08:32:16.152Z,1.69
2022-12-20T08:35:18.659Z,1.49
2022-12-20T08:38:20.977Z,1.79
2022-12-20T08:41:23.352Z,1.71
2022-12-20T08:44:25.825Z,1.81
2022-12-20T08:47:30.119Z,1.41
2022-12-20T08:50:32.403Z,1.56
2022-12-20T08:53:35.836Z,1.31
2022-12-20T08:56:38.133Z,1.74
2022-12-20T08:59:40.518Z,1.62
2022-12-20T09:02:43.003Z,1.49
2022-12-20T09:05:47.508Z,1.69
2022-12-20T09:08:50.474Z,1.70
2022-12-20T09:11:52.821Z,1.67
2022-12-20T09:14:55.266Z,1.83
2022-12-20T09:17:58.181Z,1.92
2022-12-20T09:21:01.756Z,1.90
2022-12-20T09:24:04.255Z,1.91
2022-12-20T09:27:06.597Z,1.78
2022-12-20T09:30:09.757Z,1.90
2022-12-20T09:33:12.218Z,1.90
2022-12-20T09:36:17.544Z,1.89
2022-12-20T09:39:19.839Z,2.01
2022-12-20T09:42:26.825Z,1.89
2022-12-20T09:45:31.986Z,2.02
2022-12-20T09:48:39.059Z,2.22
2022-12-20T09:52:25.328Z,2.17
2022-12-20T09:55:29.527Z,1.71
2022-12-20T09:58:55.344Z,2.09
2022-12-20T10:02:12.893Z,2.10
2022-12-20T10:05:41.441Z,2.19
2022-12-20T10:08:53.286Z,2.03
2022-12-20T10:12:13.522Z,2.03
2022-12-20T10:15:20.392Z,1.97
2022-12-20T10:18:38.367Z,1.85
2022-12-20T10:21:53.207Z,2.09
2022-12-20T10:25:18.374Z,2.11
2022-12-20T10:28:24.542Z,1.98
2022-12-20T10:31:28.331Z,2.18
2022-12-20T10:34:37.330Z,2.05
2022-12-20T10:38:07.011Z,2.21
2022-12-20T10:41:21.969Z,2.23
2022-12-20T10:44:25.393Z,2.06
2022-12-20T10:47:31.109Z,2.15
2022-12-20T10:50:33.755Z,2.19
2022-12-20T10:53:51.362Z,2.04
2022-12-20T10:57:02.079Z,2.06
2022-12-20T11:00:09.199Z,2.13
2022-12-20T11:03:14.580Z,2.06
2022-12-20T11:06:18.984Z,2.06
2022-12-20T11:09:30.469Z,2.23
2022-12-20T11:12:32.874Z,2.41
2022-12-20T11:15:36.818Z,2.22
2022-12-20T11:18:55.214Z,2.18
2022-12-20T11:22:15.702Z,2.26
2022-12-20T11:25:41.248Z,2.32
2022-12-20T11:28:52.534Z,2.34
2022-12-20T11:32:24.974Z,2.35
2022-12-20T11:35:57.628Z,2.35
2022-12-20T11:39:04.960Z,2.28
2022-12-20T11:42:16.092Z,2.68
2022-12-20T11:45:51.265Z,2.63
2022-12-20T11:49:31.691Z,2.51
2022-12-20T11:52:48.582Z,2.15
2022-12-20T11:55:53.434Z,2.41
2022-12-20T11:59:11.149Z,2.27
2022-12-20T12:02:33.928Z,2.12
2022-12-20T12:05:46.025Z,2.24
2022-12-20T12:09:19.198Z,2.35
2022-12-20T12:12:31.819Z,2.46
2022-12-20T12:16:00.358Z,2.36
2022-12-20T12:19:02.776Z,2.26
2022-12-20T12:22:12.800Z,2.27
2022-12-20T12:25:17.540Z,2.26
2022-12-20T12:28:21.301Z,2.51
2022-12-20T12:31:29.248Z,2.50
2022-12-20T12:34:34.184Z,2.56
2022-12-20T12:38:04.163Z,2.61
2022-12-20T12:41:33.564Z,2.48
2022-12-20T12:44:35.868Z,2.66
2022-12-20T12:47:39.943Z,2.62
2022-12-20T12:50:46.110Z,2.58
2022-12-20T12:53:54.097Z,2.47
2022-12-20T12:57:14.652Z,2.60
2022-12-20T13:00:52.165Z,2.64
2022-12-20T13:03:54.617Z,2.44
2022-12-20T13:07:02.453Z,2.45
2022-12-20T13:10:10.537Z,2.55
2022-12-20T13:13:22.690Z,2.52
2022-12-20T13:17:02.265Z,2.40
2022-12-20T13:19:53.232Z,2.30
2022-12-20T13:23:10.699Z,2.34
2022-12-20T13:26:42.964Z,2.44
2022-12-20T13:30:01.189Z,2.39
2022-12-20T13:33:19.204Z,2.48
2022-12-20T13:36:36.118Z,2.38
2022-12-20T13:39:38.637Z,2.35
2022-12-20T13:42:42.105Z,2.37
2022-12-20T13:45:47.458Z,2.38
2022-12-20T13:49:28.598Z,2.47
2022-12-20T13:52:34.871Z,2.19
2022-12-20T13:55:42.854Z,2.31
2022-12-20T13:58:46.086Z,2.29
2022-12-20T14:01:54.002Z,2.21
2022-12-20T14:05:13.747Z,2.09
2022-12-20T14:08:19.508Z,2.08
2022-12-20T14:11:29.240Z,2.23
2022-12-20T14:14:32.025Z,2.16
2022-12-20T14:17:36.498Z,1.98
2022-12-20T14:20:41.008Z,2.23
2022-12-20T14:23:48.576Z,2.22
2022-12-20T14:26:52.829Z,2.13
2022-12-20T14:29:55.197Z,2.23
2022-12-20T14:32:57.600Z,2.25
2022-12-20T14:36:26.624Z,2.11
2022-12-20T14:39:29.113Z,2.15
2022-12-20T14:42:37.228Z,2.20
2022-12-20T14:45:39.722Z,2.10
2022-12-20T14:48:42.019Z,2.19
2022-12-20T14:51:44.439Z,2.15
2022-12-20T14:55:07.617Z,2.24
2022-12-20T14:58:27.758Z,2.31
2022-12-20T15:01:34.790Z,2.17
2022-12-20T15:04:41.634Z,2.14
2022-12-20T15:07:43.993Z,2.31
2022-12-20T15:11:22.506Z,2.36
2022-12-20T15:14:40.881Z,2.43
2022-12-20T15:17:43.338Z,2.34
2022-12-20T15:20:47.835Z,2.34
2022-12-20T15:23:52.064Z,2.51
2022-12-20T15:26:55.180Z,2.47
2022-12-20T15:29:59.149Z,2.31
2022-12-20T15:33:01.501Z,2.48
2022-12-20T15:36:03.943Z,2.54
2022-12-20T15:39:14.532Z,2.64
2022-12-20T15:42:19.080Z,2.68
2022-12-20T15:45:22.946Z,2.63
2022-12-20T15:48:25.235Z,2.48
2022-12-20T15:51:35.213Z,2.56
2022-12-20T15:54:38.498Z,2.56
2022-12-20T15:57:40.900Z,2.50
2022-12-20T16:00:43.640Z,2.67
2022-12-20T16:03:46.167Z,2.64
2022-12-20T16:06:49.918Z,2.65
2022-12-20T16:09:52.385Z,2.68
2022-12-20T16:12:55.789Z,2.75
2022-12-20T16:16:00.318Z,2.72
2022-12-20T16:19:06.696Z,2.72
2022-12-20T16:22:27.020Z,3.00
2022-12-20T16:25:35.264Z,2.90
2022-12-20T16:28:37.698Z,2.99
2022-12-20T16:31:42.320Z,2.88
2022-12-20T16:34:45.538Z,3.01
2022-12-20T16:37:48.582Z,2.83
2022-12-20T16:40:50.943Z,2.93
2022-12-20T16:43:55.190Z,3.00
2022-12-20T16:46:57.651Z,2.94
2022-12-20T16:50:00.147Z,2.84
2022-12-20T16:53:02.535Z,2.80
2022-12-20T16:56:04.997Z,2.80
2022-12-20T16:59:19.086Z,2.67
2022-12-20T17:02:30.925Z,2.86
2022-12-20T17:05:36.631Z,2.81
2022-12-20T17:08:54.705Z,2.87
2022-12-20T17:11:57.338Z,2.77
2022-12-20T17:14:59.998Z,2.62
2022-12-20T17:18:02.335Z,2.77
2022-12-20T17:21:30.818Z,2.66
2022-12-20T17:24:33.228Z,2.71
2022-12-20T17:27:35.667Z,2.64
2022-12-20T17:30:38.321Z,2.78
2022-12-20T17:33:40.594Z,2.74
2022-12-20T17:36:42.909Z,2.70
2022-12-20T17:39:45.269Z,2.62
2022-12-20T17:42:49.334Z,2.79
2022-12-20T17:45:51.572Z,2.76
2022-12-20T17:48:54.477Z,3.02
2022-12-20T17:51:56.799Z,2.83
2022-12-20T17:55:00.703Z,2.93
2022-12-20T17:58:04.901Z,2.93
2022-12-20T18:01:08.491Z,2.92
2022-12-20T18:04:14.703Z,2.94
2022-12-20T18:07:18.636Z,3.12
2022-12-20T18:10:23.261Z,3.19
2022-12-20T18:13:26.919Z,3.01
2022-12-20T18:16:32.372Z,3.00
2022-12-20T18:19:36.022Z,3.04
2022-12-20T18:22:39.805Z,3.00
2022-12-20T18:25:43.283Z,2.98
2022-12-20T18:28:48.504Z,2.90
2022-12-20T18:31:52.330Z,2.80
2022-12-20T18:34:56.565Z,2.91
2022-12-20T18:37:59.762Z,3.11
2022-12-20T18:41:05.463Z,3.12
2022-12-20T18:44:07.902Z,3.25
2022-12-20T18:47:10.223Z,3.24
2022-12-20T18:50:13.467Z,3.24
2022-12-20T18:53:15.871Z,3.29
2022-12-20T18:56:25.282Z,3.38
2022-12-20T18:59:27.747Z,3.31
2022-12-20T19:02:30.124Z,3.46
2022-12-20T19:05:35.846Z,3.52
2022-12-20T19:08:38.919Z,3.19
2022-12-20T19:11:42.538Z,3.30
2022-12-20T19:14:44.928Z,3.45
2022-12-20T19:17:47.315Z,3.27
2022-12-20T19:20:50.861Z,3.32
2022-12-20T19:23:55.907Z,3.24
2022-12-20T19:26:58.328Z,3.20
2022-12-20T19:30:00.703Z,3.24
2022-12-20T19:33:03.440Z,3.17
2022-12-20T19:36:20.020Z,3.28
2022-12-20T19:39:23.606Z,3.16
2022-12-20T19:42:26.144Z,3.26
2022-12-20T19:45:28.499Z,3.28
2022-12-20T19:48:33.347Z,3.37
2022-12-20T19:51:35.773Z,3.36
2022-12-20T19:54:39.889Z,3.29
2022-12-20T19:57:42.239Z,3.50
2022-12-20T20:00:48.556Z,3.44
2022-12-20T20:03:51.100Z,3.62
2022-12-20T20:06:53.549Z,3.51
2022-12-20T20:09:56.434Z,3.62
2022-12-20T20:12:58.886Z,3.65
2022-12-20T20:16:03.317Z,3.43
2022-12-20T20:19:05.964Z,3.31
2022-12-20T20:22:10.851Z,3.36
2022-12-20T20:25:13.241Z,3.42
2022-12-20T20:28:15.902Z,3.42
2022-12-20T20:31:20.020Z,3.37
2022-12-20T20:34:22.359Z,3.43
2022-12-20T20:37:24.664Z,3.35
2022-12-20T20:40:26.995Z,3.40
2022-12-20T20:43:29.843Z,3.30
2022-12-20T20:46:32.637Z,3.23
2022-12-20T20:49:35.105Z,3.13
2022-12-20T20:52:37.419Z,3.26
2022-12-20T20:55:39.757Z,3.30
2022-12-20T20:58:42.265Z,3.32
2022-12-20T21:01:44.969Z,3.29
2022-12-20T21:05:07.484Z,3.46
2022-12-20T21:08:11.711Z,3.24
2022-12-20T21:11:14.316Z,3.20
2022-12-20T21:14:16.892Z,3.38
2022-12-20T21:17:19.281Z,3.40
2022-12-20T21:20:25.915Z,3.36
2022-12-20T21:23:28.647Z,3.09
2022-12-20T21:26:30.987Z,3.26
2022-12-20T21:29:33.548Z,3.04
2022-12-20T21:32:35.864Z,3.03
2022-12-20T21:35:38.280Z,3.03
2022-12-20T21:38:41.036Z,2.91
2022-12-20T21:41:43.555Z,2.97
2022-12-20T21:44:45.870Z,2.95
2022-12-20T21:47:48.193Z,2.82
2022-12-20T21:51:03.340Z,2.80
2022-12-20T21:54:05.668Z,2.78
2022-12-20T21:57:07.963Z,2.72
2022-12-20T22:00:11.389Z,2.77
2022-12-20T22:03:13.881Z,2.65
2022-12-20T22:06:17.210Z,2.78
2022-12-20T22:09:19.730Z,2.82
2022-12-20T22:12:22.028Z,2.81
2022-12-20T22:15:24.360Z,2.76
2022-12-20T22:18:26.677Z,2.84
2022-12-20T22:21:30.853Z,2.83
2022-12-20T22:24:33.529Z,2.74
2022-12-20T22:27:35.935Z,2.55
2022-12-20T22:30:41.519Z,2.50
2022-12-20T22:33:45.142Z,2.49
2022-12-20T22:36:47.435Z,2.63
2022-12-20T22:39:49.755Z,2.63
2022-12-20T22:42:52.106Z,2.59
2022-12-20T22:49:20.724Z,2.78
2022-12-20T22:52:23.016Z,2.75
2022-12-20T22:55:25.664Z,2.74
2022-12-20T22:58:28.790Z,2.85
2022-12-20T23:01:31.263Z,2.83
2022-12-20T23:04:33.631Z,2.76
2022-12-20T23:07:36.101Z,2.69
2022-12-20T23:10:58.991Z,2.60
2022-12-20T23:14:19.865Z,2.60
2022-12-20T23:17:22.187Z,2.49
2022-12-20T23:20:43.405Z,2.50
2022-12-20T23:23:48.518Z,2.27
2022-12-20T23:26:53.317Z,2.51
2022-12-20T23:29:55.683Z,2.64
2022-12-20T23:32:58.052Z,2.47
2022-12-20T23:36:01.849Z,2.54
2022-12-20T23:39:04.800Z,2.60
2022-12-20T23:42:07.207Z,2.65
2022-12-20T23:45:10.767Z,2.62
2022-12-20T23:48:13.014Z,2.59
2022-12-20T23:51:15.353Z,2.57
2022-12-20T23:54:21.641Z,2.57
2022-12-20T23:57:23.943Z,2.51
